sensor_id;sensor_type;location;lat;lon;timestamp;pressure;altitude;pressure_sealevel;temperature;humidity
62248;BME280;48237;50.140;8.486;2023-01-31T09:10:58;100467.05;;;4.41;80.46
62248;BME280;48237;50.140;8.486;2023-01-31T09:13:26;100472.33;;;4.49;78.67
62248;BME280;48237;50.140;8.486;2023-01-31T09:15:58;100481.65;;;3.78;88.07
62248;BME280;48237;50.140;8.486;2023-01-31T09:18:27;100483.64;;;4.08;83.97
62248;BME280;48237;50.140;8.486;2023-01-31T09:20:55;100484.27;;;3.91;85.93
62248;BME280;48237;50.140;8.486;2023-01-31T09:23:29;100482.42;;;3.87;82.93
62248;BME280;48237;50.140;8.486;2023-01-31T09:25:56;100484.90;;;4.19;84.52
62248;BME280;48237;50.140;8.486;2023-01-31T09:28:24;100480.83;;;3.87;84.79
62248;BME280;48237;50.140;8.486;2023-01-31T09:30:51;100477.30;;;4.02;81.51
62248;BME280;48237;50.140;8.486;2023-01-31T09:33:19;100484.41;;;3.21;88.71
62248;BME280;48237;50.140;8.486;2023-01-31T09:35:55;100482.56;;;3.16;88.61
62248;BME280;48237;50.140;8.486;2023-01-31T09:38:22;100482.87;;;3.88;85.33
62248;BME280;48237;50.140;8.486;2023-01-31T09:40:49;100479.24;;;2.99;87.83
62248;BME280;48237;50.140;8.486;2023-01-31T09:43:19;100470.50;;;4.13;83.72
62248;BME280;48237;50.140;8.486;2023-01-31T09:45:48;100459.94;;;3.40;85.97
62248;BME280;48237;50.140;8.486;2023-01-31T09:48:20;100444.08;;;3.31;90.77
62248;BME280;48237;50.140;8.486;2023-01-31T09:50:51;100431.00;;;3.18;87.32
62248;BME280;48237;50.140;8.486;2023-01-31T09:53:21;100437.09;;;4.08;83.42
62248;BME280;48237;50.140;8.486;2023-01-31T09:55:55;100442.62;;;3.87;83.66
62248;BME280;48237;50.140;8.486;2023-01-31T09:58:30;100443.96;;;3.45;87.27
62248;BME280;48237;50.140;8.486;2023-01-31T10:01:08;100443.56;;;3.50;86.80
62248;BME280;48237;50.140;8.486;2023-01-31T10:03:46;100451.02;;;4.50;83.17
62248;BME280;48237;50.140;8.486;2023-01-31T10:06:19;100466.31;;;3.78;86.18
62248;BME280;48237;50.140;8.486;2023-01-31T10:08:52;100475.59;;;4.21;83.61
62248;BME280;48237;50.140;8.486;2023-01-31T10:11:27;100474.18;;;3.95;82.88
62248;BME280;48237;50.140;8.486;2023-01-31T10:14:00;100475.41;;;4.23;83.32
62248;BME280;48237;50.140;8.486;2023-01-31T10:16:35;100472.83;;;3.22;89.13
62248;BME280;48237;50.140;8.486;2023-01-31T10:19:05;100462.47;;;3.66;87.07
62248;BME280;48237;50.140;8.486;2023-01-31T10:21:39;100460.43;;;3.44;88.74
62248;BME280;48237;50.140;8.486;2023-01-31T10:24:12;100451.65;;;4.49;82.77
62248;BME280;48237;50.140;8.486;2023-01-31T10:26:43;100455.71;;;4.37;83.31
62248;BME280;48237;50.140;8.486;2023-01-31T10:29:15;100448.39;;;4.52;81.66
62248;BME280;48237;50.140;8.486;2023-01-31T10:31:50;100454.04;;;4.28;82.74
62248;BME280;48237;50.140;8.486;2023-01-31T10:34:22;100451.72;;;4.08;83.45
62248;BME280;48237;50.140;8.486;2023-01-31T10:36:56;100443.38;;;4.25;84.38
62248;BME280;48237;50.140;8.486;2023-01-31T10:39:30;100435.01;;;4.13;84.77
62248;BME280;48237;50.140;8.486;2023-01-31T10:42:08;100426.80;;;3.68;84.98
62248;BME280;48237;50.140;8.486;2023-01-31T10:44:43;100417.11;;;4.36;86.89
62248;BME280;48237;50.140;8.486;2023-01-31T10:47:15;100416.38;;;3.35;89.00
62248;BME280;48237;50.140;8.486;2023-01-31T10:49:45;100419.20;;;4.68;82.31
62248;BME280;48237;50.140;8.486;2023-01-31T10:52:31;100404.92;;;4.32;84.51
62248;BME280;48237;50.140;8.486;2023-01-31T10:55:17;100408.15;;;4.86;81.30
62248;BME280;48237;50.140;8.486;2023-01-31T10:57:47;100405.28;;;4.87;81.79
62248;BME280;48237;50.140;8.486;2023-01-31T11:00:19;100398.49;;;4.88;84.38
62248;BME280;48237;50.140;8.486;2023-01-31T11:02:48;100387.75;;;4.84;80.77
62248;BME280;48237;50.140;8.486;2023-01-31T11:05:18;100384.05;;;4.65;82.61
62248;BME280;48237;50.140;8.486;2023-01-31T11:07:47;100371.01;;;3.96;86.43
62248;BME280;48237;50.140;8.486;2023-01-31T11:10:24;100364.94;;;4.53;84.78
62248;BME280;48237;50.140;8.486;2023-01-31T11:12:54;100357.30;;;3.24;88.05
62248;BME280;48237;50.140;8.486;2023-01-31T11:15:24;100349.89;;;4.92;83.49
62248;BME280;48237;50.140;8.486;2023-01-31T11:17:52;100346.87;;;4.07;87.67
62248;BME280;48237;50.140;8.486;2023-01-31T11:20:24;100340.04;;;4.57;84.28
62248;BME280;48237;50.140;8.486;2023-01-31T11:22:53;100335.72;;;4.67;83.58
62248;BME280;48237;50.140;8.486;2023-01-31T11:25:24;100333.79;;;3.63;93.69
62248;BME280;48237;50.140;8.486;2023-01-31T11:27:53;100328.13;;;4.34;87.46
62248;BME280;48237;50.140;8.486;2023-01-31T11:30:27;100328.77;;;4.80;84.40
62248;BME280;48237;50.140;8.486;2023-01-31T11:32:55;100323.28;;;5.44;82.68
62248;BME280;48237;50.140;8.486;2023-01-31T11:35:26;100321.27;;;5.25;81.21
62248;BME280;48237;50.140;8.486;2023-01-31T11:37:56;100300.51;;;6.01;79.07
62248;BME280;48237;50.140;8.486;2023-01-31T11:40:28;100295.79;;;5.68;77.41
62248;BME280;48237;50.140;8.486;2023-01-31T11:42:57;100297.07;;;5.16;81.34
62248;BME280;48237;50.140;8.486;2023-01-31T11:45:26;100288.08;;;5.78;78.86
62248;BME280;48237;50.140;8.486;2023-01-31T11:47:57;100275.96;;;5.47;81.47
62248;BME280;48237;50.140;8.486;2023-01-31T11:50:31;100271.18;;;5.41;79.15
62248;BME280;48237;50.140;8.486;2023-01-31T11:53:02;100266.48;;;6.62;76.31
62248;BME280;48237;50.140;8.486;2023-01-31T11:55:35;100265.93;;;5.69;78.22
62248;BME280;48237;50.140;8.486;2023-01-31T11:58:09;100273.10;;;6.47;76.06
62248;BME280;48237;50.140;8.486;2023-01-31T12:00:50;100267.52;;;5.38;80.47
62248;BME280;48237;50.140;8.486;2023-01-31T12:03:18;100262.34;;;4.78;81.84
62248;BME280;48237;50.140;8.486;2023-01-31T12:05:49;100261.80;;;4.84;80.68
62248;BME280;48237;50.140;8.486;2023-01-31T12:08:34;100264.92;;;4.91;80.96
62248;BME280;48237;50.140;8.486;2023-01-31T12:11:05;100269.48;;;5.70;77.72
62248;BME280;48237;50.140;8.486;2023-01-31T12:13:45;100272.63;;;5.82;76.16
62248;BME280;48237;50.140;8.486;2023-01-31T12:16:13;100257.61;;;6.11;77.39
62248;BME280;48237;50.140;8.486;2023-01-31T12:18:52;100244.93;;;6.10;74.41
62248;BME280;48237;50.140;8.486;2023-01-31T12:21:37;100243.31;;;4.35;83.49
62248;BME280;48237;50.140;8.486;2023-01-31T12:24:14;100237.11;;;5.91;75.93
62248;BME280;48237;50.140;8.486;2023-01-31T12:26:48;100231.28;;;5.99;74.50
62248;BME280;48237;50.140;8.486;2023-01-31T12:29:32;100227.08;;;4.79;84.16
62248;BME280;48237;50.140;8.486;2023-01-31T12:32:18;100223.58;;;5.54;81.12
62248;BME280;48237;50.140;8.486;2023-01-31T12:35:01;100223.69;;;6.23;73.92
62248;BME280;48237;50.140;8.486;2023-01-31T12:37:40;100217.48;;;6.24;74.93
62248;BME280;48237;50.140;8.486;2023-01-31T12:40:26;100211.96;;;6.60;72.92
62248;BME280;48237;50.140;8.486;2023-01-31T12:42:56;100215.18;;;6.43;76.38
62248;BME280;48237;50.140;8.486;2023-01-31T12:45:36;100205.94;;;6.76;71.83
62248;BME280;48237;50.140;8.486;2023-01-31T12:48:33;100202.11;;;6.65;73.25
62248;BME280;48237;50.140;8.486;2023-01-31T12:51:11;100194.68;;;6.24;73.94
62248;BME280;48237;50.140;8.486;2023-01-31T12:53:49;100183.99;;;6.16;74.68
62248;BME280;48237;50.140;8.486;2023-01-31T12:56:35;100172.68;;;5.75;75.47
62248;BME280;48237;50.140;8.486;2023-01-31T12:59:16;100171.02;;;6.01;75.03
62248;BME280;48237;50.140;8.486;2023-01-31T13:01:49;100170.38;;;5.88;77.11
62248;BME280;48237;50.140;8.486;2023-01-31T13:04:30;100169.68;;;5.37;78.91
62248;BME280;48237;50.140;8.486;2023-01-31T13:07:03;100173.10;;;6.10;76.27
62248;BME280;48237;50.140;8.486;2023-01-31T13:09:33;100167.10;;;5.59;76.11
62248;BME280;48237;50.140;8.486;2023-01-31T13:12:05;100160.59;;;5.99;77.76
62248;BME280;48237;50.140;8.486;2023-01-31T13:14:37;100160.36;;;5.31;80.69
62248;BME280;48237;50.140;8.486;2023-01-31T13:17:09;100147.30;;;5.87;78.62
62248;BME280;48237;50.140;8.486;2023-01-31T13:19:42;100136.35;;;4.93;81.82
62248;BME280;48237;50.140;8.486;2023-01-31T13:22:13;100129.71;;;4.24;85.27
62248;BME280;48237;50.140;8.486;2023-01-31T13:24:46;100133.03;;;5.04;80.08
62248;BME280;48237;50.140;8.486;2023-01-31T13:27:18;100119.00;;;4.98;82.49
62248;BME280;48237;50.140;8.486;2023-01-31T13:29:50;100128.37;;;5.50;81.11
62248;BME280;48237;50.140;8.486;2023-01-31T13:32:26;100122.86;;;5.82;80.59
62248;BME280;48237;50.140;8.486;2023-01-31T13:34:59;100126.01;;;5.38;82.38
62248;BME280;48237;50.140;8.486;2023-01-31T13:37:31;100120.98;;;5.65;83.34
62248;BME280;48237;50.140;8.486;2023-01-31T13:40:08;100119.35;;;5.84;81.34
62248;BME280;48237;50.140;8.486;2023-01-31T13:42:42;100131.33;;;5.28;84.12
62248;BME280;48237;50.140;8.486;2023-01-31T13:45:19;100130.50;;;5.99;81.12
62248;BME280;48237;50.140;8.486;2023-01-31T13:47:51;100120.40;;;4.92;86.07
62248;BME280;48237;50.140;8.486;2023-01-31T13:50:33;100124.87;;;4.27;92.45
62248;BME280;48237;50.140;8.486;2023-01-31T13:53:02;100111.83;;;4.68;92.48
62248;BME280;48237;50.140;8.486;2023-01-31T13:55:34;100114.51;;;4.64;90.75
62248;BME280;48237;50.140;8.486;2023-01-31T13:58:04;100108.00;;;4.65;90.17
62248;BME280;48237;50.140;8.486;2023-01-31T14:00:38;100104.06;;;5.51;89.86
62248;BME280;48237;50.140;8.486;2023-01-31T14:03:10;100109.59;;;5.61;89.77
62248;BME280;48237;50.140;8.486;2023-01-31T14:05:56;100113.82;;;4.90;94.04
62248;BME280;48237;50.140;8.486;2023-01-31T14:08:36;100118.02;;;4.73;94.14
62248;BME280;48237;50.140;8.486;2023-01-31T14:11:34;100117.17;;;4.81;93.42
62248;BME280;48237;50.140;8.486;2023-01-31T14:14:25;100113.25;;;5.06;94.83
62248;BME280;48237;50.140;8.486;2023-01-31T14:16:56;100109.21;;;4.39;97.31
62248;BME280;48237;50.140;8.486;2023-01-31T14:20:06;100105.20;;;4.61;99.40
62248;BME280;48237;50.140;8.486;2023-01-31T14:23:28;100109.54;;;4.28;100.00
62248;BME280;48237;50.140;8.486;2023-01-31T14:25:56;100108.63;;;4.50;100.00
62248;BME280;48237;50.140;8.486;2023-01-31T14:28:24;100108.47;;;4.27;100.00
62248;BME280;48237;50.140;8.486;2023-01-31T14:30:51;100107.70;;;4.45;100.00
62248;BME280;48237;50.140;8.486;2023-01-31T14:33:22;100114.62;;;5.13;100.00
62248;BME280;48237;50.140;8.486;2023-01-31T14:36:39;100109.58;;;4.61;100.00
62248;BME280;48237;50.140;8.486;2023-01-31T14:39:29;100102.38;;;5.04;100.00
62248;BME280;48237;50.140;8.486;2023-01-31T14:42:16;100103.38;;;5.24;97.83
62248;BME280;48237;50.140;8.486;2023-01-31T14:45:02;100106.27;;;4.97;100.00
62248;BME280;48237;50.140;8.486;2023-01-31T14:47:47;100106.47;;;5.45;97.95
62248;BME280;48237;50.140;8.486;2023-01-31T14:50:31;100112.74;;;5.35;98.51
62248;BME280;48237;50.140;8.486;2023-01-31T14:53:14;100111.59;;;4.54;100.00
62248;BME280;48237;50.140;8.486;2023-01-31T14:55:59;100115.27;;;4.72;100.00
62248;BME280;48237;50.140;8.486;2023-01-31T14:58:31;100107.88;;;4.38;100.00
62248;BME280;48237;50.140;8.486;2023-01-31T15:01:02;100108.71;;;3.90;100.00
62248;BME280;48237;50.140;8.486;2023-01-31T15:03:33;100105.28;;;4.35;100.00
62248;BME280;48237;50.140;8.486;2023-01-31T15:06:08;100109.25;;;4.44;100.00
62248;BME280;48237;50.140;8.486;2023-01-31T15:08:41;100112.60;;;4.60;100.00
62248;BME280;48237;50.140;8.486;2023-01-31T15:11:16;100105.27;;;4.75;100.00
62248;BME280;48237;50.140;8.486;2023-01-31T15:14:00;100103.52;;;4.88;100.00
62248;BME280;48237;50.140;8.486;2023-01-31T15:16:29;100099.74;;;4.87;100.00
62248;BME280;48237;50.140;8.486;2023-01-31T15:19:03;100099.94;;;4.38;100.00
62248;BME280;48237;50.140;8.486;2023-01-31T15:21:36;100101.11;;;4.81;100.00
62248;BME280;48237;50.140;8.486;2023-01-31T15:24:14;100104.03;;;5.17;100.00
62248;BME280;48237;50.140;8.486;2023-01-31T15:26:44;100098.36;;;4.48;100.00
62248;BME280;48237;50.140;8.486;2023-01-31T15:29:17;100094.66;;;4.22;100.00
62248;BME280;48237;50.140;8.486;2023-01-31T15:31:45;100103.34;;;4.03;100.00
62248;BME280;48237;50.140;8.486;2023-01-31T15:34:18;100109.36;;;2.86;100.00
62248;BME280;48237;50.140;8.486;2023-01-31T15:36:56;100107.25;;;4.40;100.00
62248;BME280;48237;50.140;8.486;2023-01-31T15:39:29;100108.14;;;4.25;100.00
62248;BME280;48237;50.140;8.486;2023-01-31T15:42:18;100111.29;;;4.45;100.00
62248;BME280;48237;50.140;8.486;2023-01-31T15:44:46;100111.16;;;5.08;97.92
62248;BME280;48237;50.140;8.486;2023-01-31T15:47:19;100114.31;;;4.46;100.00
62248;BME280;48237;50.140;8.486;2023-01-31T15:49:47;100113.63;;;4.34;100.00
62248;BME280;48237;50.140;8.486;2023-01-31T15:52:16;100108.62;;;5.20;97.12
62248;BME280;48237;50.140;8.486;2023-01-31T15:54:53;100109.43;;;4.96;98.70
62248;BME280;48237;50.140;8.486;2023-01-31T15:57:22;100108.25;;;3.62;100.00
62248;BME280;48237;50.140;8.486;2023-01-31T15:59:50;100105.33;;;5.21;98.28
62248;BME280;48237;50.140;8.486;2023-01-31T16:02:23;100104.04;;;5.61;98.08
62248;BME280;48237;50.140;8.486;2023-01-31T16:04:52;100099.33;;;5.35;97.06
62248;BME280;48237;50.140;8.486;2023-01-31T16:07:20;100109.54;;;5.49;98.36
62248;BME280;48237;50.140;8.486;2023-01-31T16:09:50;100114.92;;;5.17;97.62
62248;BME280;48237;50.140;8.486;2023-01-31T16:12:17;100113.39;;;4.14;100.00
62248;BME280;48237;50.140;8.486;2023-01-31T16:14:46;100116.07;;;5.45;99.85
62248;BME280;48237;50.140;8.486;2023-01-31T16:17:15;100116.04;;;4.88;100.00
62248;BME280;48237;50.140;8.486;2023-01-31T16:19:43;100117.43;;;4.69;100.00
62248;BME280;48237;50.140;8.486;2023-01-31T16:22:24;100111.65;;;4.80;100.00
62248;BME280;48237;50.140;8.486;2023-01-31T16:24:53;100113.85;;;4.54;100.00
62248;BME280;48237;50.140;8.486;2023-01-31T16:27:20;100119.94;;;3.94;100.00
62248;BME280;48237;50.140;8.486;2023-01-31T16:29:50;100127.98;;;3.72;100.00
62248;BME280;48237;50.140;8.486;2023-01-31T16:32:20;100121.01;;;4.45;100.00
62248;BME280;48237;50.140;8.486;2023-01-31T16:34:57;100121.01;;;4.78;100.00
62248;BME280;48237;50.140;8.486;2023-01-31T16:37:31;100121.41;;;4.71;100.00
62248;BME280;48237;50.140;8.486;2023-01-31T16:40:02;100121.54;;;4.81;100.00
62248;BME280;48237;50.140;8.486;2023-01-31T16:42:30;100117.61;;;5.06;100.00
62248;BME280;48237;50.140;8.486;2023-01-31T16:44:58;100125.34;;;3.21;100.00
62248;BME280;48237;50.140;8.486;2023-01-31T16:47:45;100111.48;;;4.95;100.00
62248;BME280;48237;50.140;8.486;2023-01-31T16:50:31;100112.28;;;5.65;99.22
62248;BME280;48237;50.140;8.486;2023-01-31T16:53:13;100112.75;;;5.09;99.15
62248;BME280;48237;50.140;8.486;2023-01-31T16:55:41;100117.29;;;5.18;99.39
62248;BME280;48237;50.140;8.486;2023-01-31T16:58:11;100120.92;;;3.70;100.00
62248;BME280;48237;50.140;8.486;2023-01-31T17:00:38;100112.28;;;5.19;99.14
62248;BME280;48237;50.140;8.486;2023-01-31T17:03:13;100114.57;;;5.25;98.08
62248;BME280;48237;50.140;8.486;2023-01-31T17:05:43;100116.54;;;5.48;97.03
62248;BME280;48237;50.140;8.486;2023-01-31T17:08:14;100116.84;;;5.01;97.91
62248;BME280;48237;50.140;8.486;2023-01-31T17:10:43;100115.11;;;5.79;93.88
62248;BME280;48237;50.140;8.486;2023-01-31T17:13:15;100114.89;;;4.91;97.10
62248;BME280;48237;50.140;8.486;2023-01-31T17:15:44;100112.28;;;5.06;99.05
62248;BME280;48237;50.140;8.486;2023-01-31T17:18:11;100111.24;;;5.85;95.22
62248;BME280;48237;50.140;8.486;2023-01-31T17:20:40;100110.21;;;5.28;94.97
62248;BME280;48237;50.140;8.486;2023-01-31T17:23:09;100112.58;;;4.93;99.22
62248;BME280;48237;50.140;8.486;2023-01-31T17:25:36;100115.45;;;5.82;95.82
62248;BME280;48237;50.140;8.486;2023-01-31T17:28:03;100116.76;;;5.84;94.03
62248;BME280;48237;50.140;8.486;2023-01-31T17:30:31;100117.64;;;6.56;91.88
62248;BME280;48237;50.140;8.486;2023-01-31T17:32:59;100118.69;;;4.69;100.00
62248;BME280;48237;50.140;8.486;2023-01-31T17:35:28;100118.18;;;5.07;100.00
62248;BME280;48237;50.140;8.486;2023-01-31T17:37:57;100113.55;;;5.32;100.00
62248;BME280;48237;50.140;8.486;2023-01-31T17:40:24;100115.00;;;5.21;100.00
62248;BME280;48237;50.140;8.486;2023-01-31T17:42:53;100117.38;;;5.77;96.81
62248;BME280;48237;50.140;8.486;2023-01-31T17:45:23;100113.59;;;5.71;95.55
62248;BME280;48237;50.140;8.486;2023-01-31T17:47:51;100116.68;;;5.72;97.55
62248;BME280;48237;50.140;8.486;2023-01-31T17:50:20;100112.29;;;5.62;98.32
62248;BME280;48237;50.140;8.486;2023-01-31T17:52:49;100112.30;;;4.47;100.00
62248;BME280;48237;50.140;8.486;2023-01-31T17:55:17;100106.97;;;5.79;97.73
62248;BME280;48237;50.140;8.486;2023-01-31T17:57:44;100109.64;;;5.97;94.54
62248;BME280;48237;50.140;8.486;2023-01-31T18:00:14;100113.27;;;5.87;94.76
62248;BME280;48237;50.140;8.486;2023-01-31T18:02:42;100118.18;;;5.25;99.83
62248;BME280;48237;50.140;8.486;2023-01-31T18:05:11;100118.40;;;5.70;97.38
62248;BME280;48237;50.140;8.486;2023-01-31T18:07:38;100106.07;;;6.21;92.22
62248;BME280;48237;50.140;8.486;2023-01-31T18:10:07;100103.27;;;6.15;93.60
62248;BME280;48237;50.140;8.486;2023-01-31T18:12:34;100104.02;;;6.00;95.61
62248;BME280;48237;50.140;8.486;2023-01-31T18:15:02;100098.65;;;5.99;95.01
62248;BME280;48237;50.140;8.486;2023-01-31T18:17:29;100101.60;;;6.38;91.72
62248;BME280;48237;50.140;8.486;2023-01-31T18:19:57;100102.91;;;6.28;92.82
62248;BME280;48237;50.140;8.486;2023-01-31T18:22:24;100107.39;;;5.92;94.96
62248;BME280;48237;50.140;8.486;2023-01-31T18:24:51;100115.64;;;5.30;99.39
62248;BME280;48237;50.140;8.486;2023-01-31T18:27:18;100115.67;;;5.59;98.65
62248;BME280;48237;50.140;8.486;2023-01-31T18:29:45;100114.18;;;5.72;99.40
62248;BME280;48237;50.140;8.486;2023-01-31T18:32:12;100115.91;;;5.20;100.00
62248;BME280;48237;50.140;8.486;2023-01-31T18:34:39;100119.80;;;5.31;99.95
62248;BME280;48237;50.140;8.486;2023-01-31T18:37:07;100116.68;;;6.05;94.94
62248;BME280;48237;50.140;8.486;2023-01-31T18:39:33;100110.88;;;5.82;95.35
62248;BME280;48237;50.140;8.486;2023-01-31T18:42:01;100105.03;;;6.14;96.39
62248;BME280;48237;50.140;8.486;2023-01-31T18:44:28;100106.83;;;6.08;95.05
62248;BME280;48237;50.140;8.486;2023-01-31T18:46:55;100109.21;;;5.72;97.25
62248;BME280;48237;50.140;8.486;2023-01-31T18:49:22;100101.54;;;6.08;94.62
62248;BME280;48237;50.140;8.486;2023-01-31T18:51:49;100105.28;;;6.35;93.04
62248;BME280;48237;50.140;8.486;2023-01-31T18:54:16;100109.38;;;6.15;96.50
62248;BME280;48237;50.140;8.486;2023-01-31T18:56:43;100114.23;;;5.91;95.53
62248;BME280;48237;50.140;8.486;2023-01-31T18:59:11;100111.02;;;6.39;94.92
62248;BME280;48237;50.140;8.486;2023-01-31T19:01:38;100104.90;;;6.22;96.44
62248;BME280;48237;50.140;8.486;2023-01-31T19:04:05;100110.83;;;6.05;96.38
62248;BME280;48237;50.140;8.486;2023-01-31T19:06:34;100112.93;;;5.48;100.00
62248;BME280;48237;50.140;8.486;2023-01-31T19:09:03;100114.81;;;5.24;100.00
62248;BME280;48237;50.140;8.486;2023-01-31T19:11:31;100102.63;;;5.43;100.00
62248;BME280;48237;50.140;8.486;2023-01-31T19:14:02;100099.10;;;5.72;100.00
62248;BME280;48237;50.140;8.486;2023-01-31T19:16:29;100101.46;;;5.79;100.00
62248;BME280;48237;50.140;8.486;2023-01-31T19:18:56;100099.90;;;5.90;100.00
62248;BME280;48237;50.140;8.486;2023-01-31T19:21:25;100103.12;;;6.27;97.06
62248;BME280;48237;50.140;8.486;2023-01-31T19:23:55;100100.48;;;5.35;100.00
62248;BME280;48237;50.140;8.486;2023-01-31T19:26:23;100105.36;;;5.32;100.00
62248;BME280;48237;50.140;8.486;2023-01-31T19:28:52;100105.73;;;5.57;100.00
62248;BME280;48237;50.140;8.486;2023-01-31T19:31:20;100108.52;;;5.58;100.00
62248;BME280;48237;50.140;8.486;2023-01-31T19:33:49;100107.46;;;5.51;100.00
62248;BME280;48237;50.140;8.486;2023-01-31T19:36:19;100103.47;;;6.12;96.33
62248;BME280;48237;50.140;8.486;2023-01-31T19:38:46;100104.61;;;5.89;96.92
62248;BME280;48237;50.140;8.486;2023-01-31T19:41:15;100101.62;;;6.05;96.51
62248;BME280;48237;50.140;8.486;2023-01-31T19:43:43;100104.99;;;6.08;96.36
62248;BME280;48237;50.140;8.486;2023-01-31T19:46:10;100099.83;;;5.94;96.98
62248;BME280;48237;50.140;8.486;2023-01-31T19:48:37;100101.54;;;5.87;95.53
62248;BME280;48237;50.140;8.486;2023-01-31T19:51:06;100097.15;;;6.84;91.44
62248;BME280;48237;50.140;8.486;2023-01-31T19:53:34;100093.86;;;6.22;94.32
62248;BME280;48237;50.140;8.486;2023-01-31T19:56:02;100098.60;;;5.67;97.80
62248;BME280;48237;50.140;8.486;2023-01-31T19:58:29;100098.34;;;6.16;95.70
62248;BME280;48237;50.140;8.486;2023-01-31T20:00:56;100104.41;;;6.11;93.32
62248;BME280;48237;50.140;8.486;2023-01-31T20:03:24;100109.06;;;5.61;98.30
62248;BME280;48237;50.140;8.486;2023-01-31T20:05:51;100109.59;;;6.37;93.02
62248;BME280;48237;50.140;8.486;2023-01-31T20:08:18;100105.94;;;6.42;92.62
62248;BME280;48237;50.140;8.486;2023-01-31T20:10:45;100102.12;;;6.23;91.84
62248;BME280;48237;50.140;8.486;2023-01-31T20:13:12;100107.47;;;5.82;94.76
62248;BME280;48237;50.140;8.486;2023-01-31T20:15:39;100103.50;;;5.77;95.72
62248;BME280;48237;50.140;8.486;2023-01-31T20:18:06;100104.79;;;6.44;91.46
62248;BME280;48237;50.140;8.486;2023-01-31T20:20:34;100102.03;;;4.93;98.39
62248;BME280;48237;50.140;8.486;2023-01-31T20:23:01;100110.65;;;5.04;100.00
62248;BME280;48237;50.140;8.486;2023-01-31T20:25:28;100108.98;;;6.33;92.77
62248;BME280;48237;50.140;8.486;2023-01-31T20:27:55;100110.11;;;6.24;89.73
62248;BME280;48237;50.140;8.486;2023-01-31T20:30:22;100115.92;;;5.58;93.38
62248;BME280;48237;50.140;8.486;2023-01-31T20:32:49;100107.66;;;6.49;90.14
62248;BME280;48237;50.140;8.486;2023-01-31T20:35:16;100109.45;;;6.64;89.69
62248;BME280;48237;50.140;8.486;2023-01-31T20:37:43;100114.94;;;5.89;91.36
62248;BME280;48237;50.140;8.486;2023-01-31T20:40:11;100118.12;;;6.24;92.76
62248;BME280;48237;50.140;8.486;2023-01-31T20:42:38;100124.06;;;5.64;94.81
62248;BME280;48237;50.140;8.486;2023-01-31T20:45:06;100128.96;;;6.23;94.63
62248;BME280;48237;50.140;8.486;2023-01-31T20:47:34;100136.39;;;6.54;92.31
62248;BME280;48237;50.140;8.486;2023-01-31T20:50:00;100135.08;;;5.95;97.81
62248;BME280;48237;50.140;8.486;2023-01-31T20:52:28;100135.29;;;6.65;94.37
62248;BME280;48237;50.140;8.486;2023-01-31T20:54:55;100126.93;;;5.99;97.15
62248;BME280;48237;50.140;8.486;2023-01-31T20:57:23;100115.70;;;5.98;96.92
62248;BME280;48237;50.140;8.486;2023-01-31T20:59:50;100123.77;;;6.34;96.60
62248;BME280;48237;50.140;8.486;2023-01-31T21:02:17;100134.47;;;6.42;96.77
62248;BME280;48237;50.140;8.486;2023-01-31T21:04:45;100139.55;;;5.61;100.00
62248;BME280;48237;50.140;8.486;2023-01-31T21:07:12;100136.92;;;5.57;100.00
62248;BME280;48237;50.140;8.486;2023-01-31T21:09:39;100145.90;;;5.93;95.38
62248;BME280;48237;50.140;8.486;2023-01-31T21:12:06;100151.17;;;5.24;99.58
62248;BME280;48237;50.140;8.486;2023-01-31T21:14:33;100153.86;;;6.34;95.87
62248;BME280;48237;50.140;8.486;2023-01-31T21:17:00;100159.55;;;6.04;97.78
62248;BME280;48237;50.140;8.486;2023-01-31T21:19:27;100161.80;;;5.87;98.40
62248;BME280;48237;50.140;8.486;2023-01-31T21:21:54;100163.00;;;6.21;97.46
62248;BME280;48237;50.140;8.486;2023-01-31T21:24:21;100165.18;;;6.31;97.85
62248;BME280;48237;50.140;8.486;2023-01-31T21:26:48;100162.68;;;6.35;96.02
62248;BME280;48237;50.140;8.486;2023-01-31T21:29:16;100155.46;;;5.92;96.07
62248;BME280;48237;50.140;8.486;2023-01-31T21:31:43;100154.58;;;6.42;97.55
62248;BME280;48237;50.140;8.486;2023-01-31T21:34:10;100145.01;;;6.26;94.79
62248;BME280;48237;50.140;8.486;2023-01-31T21:36:37;100129.46;;;6.36;93.65
62248;BME280;48237;50.140;8.486;2023-01-31T21:39:04;100126.71;;;6.67;92.72
62248;BME280;48237;50.140;8.486;2023-01-31T21:41:31;100121.43;;;6.78;91.65
62248;BME280;48237;50.140;8.486;2023-01-31T21:43:58;100126.70;;;6.66;91.13
62248;BME280;48237;50.140;8.486;2023-01-31T21:46:26;100117.86;;;6.98;88.70
62248;BME280;48237;50.140;8.486;2023-01-31T21:48:54;100123.62;;;6.25;91.41
62248;BME280;48237;50.140;8.486;2023-01-31T21:51:22;100134.29;;;6.08;93.71
62248;BME280;48237;50.140;8.486;2023-01-31T21:53:49;100131.24;;;6.35;92.92
62248;BME280;48237;50.140;8.486;2023-01-31T21:56:18;100133.88;;;6.24;92.07
62248;BME280;48237;50.140;8.486;2023-01-31T21:58:46;100134.93;;;6.14;93.26
62248;BME280;48237;50.140;8.486;2023-01-31T22:01:14;100136.25;;;5.93;94.26
62248;BME280;48237;50.140;8.486;2023-01-31T22:03:44;100134.87;;;6.06;94.14
62248;BME280;48237;50.140;8.486;2023-01-31T22:06:14;100131.26;;;6.19;94.87
62248;BME280;48237;50.140;8.486;2023-01-31T22:08:41;100129.69;;;6.23;92.77
62248;BME280;48237;50.140;8.486;2023-01-31T22:11:11;100123.38;;;7.30;88.51
62248;BME280;48237;50.140;8.486;2023-01-31T22:13:39;100115.88;;;6.42;92.70
62248;BME280;48237;50.140;8.486;2023-01-31T22:16:10;100113.84;;;6.58;91.96
62248;BME280;48237;50.140;8.486;2023-01-31T22:18:39;100110.20;;;6.50;92.66
62248;BME280;48237;50.140;8.486;2023-01-31T22:21:08;100109.98;;;6.29;94.33
62248;BME280;48237;50.140;8.486;2023-01-31T22:23:37;100102.89;;;6.15;92.37
62248;BME280;48237;50.140;8.486;2023-01-31T22:26:07;100094.25;;;6.86;89.81
62248;BME280;48237;50.140;8.486;2023-01-31T22:28:35;100093.17;;;6.31;93.22
62248;BME280;48237;50.140;8.486;2023-01-31T22:31:03;100084.66;;;6.86;89.89